sensor_id;sensor_type;location;lat;lon;timestamp;P1;durP1;ratioP1;P2;durP2;ratioP2
14300;SDS011;7234;59.306;18.024;2023-12-29T00:00:50;1.10;;;0.70;;
14300;SDS011;7234;59.306;18.024;2023-12-29T00:03:17;1.17;;;0.63;;
14300;SDS011;7234;59.306;18.024;2023-12-29T00:05:44;1.02;;;0.70;;
14300;SDS011;7234;59.306;18.024;2023-12-29T00:08:10;0.30;;;0.30;;
14300;SDS011;7234;59.306;18.024;2023-12-29T00:10:38;1.50;;;0.40;;
14300;SDS011;7234;59.306;18.024;2023-12-29T00:13:05;0.75;;;0.60;;
14300;SDS011;7234;59.306;18.024;2023-12-29T00:15:33;0.82;;;0.60;;
14300;SDS011;7234;59.306;18.024;2023-12-29T00:18:00;0.93;;;0.65;;
14300;SDS011;7234;59.306;18.024;2023-12-29T00:20:27;0.70;;;0.70;;
14300;SDS011;7234;59.306;18.024;2023-12-29T00:22:54;0.95;;;0.75;;
14300;SDS011;7234;59.306;18.024;2023-12-29T00:25:23;0.82;;;0.50;;
14300;SDS011;7234;59.306;18.024;2023-12-29T00:27:50;0.75;;;0.70;;
14300;SDS011;7234;59.306;18.024;2023-12-29T00:30:17;1.30;;;0.70;;
14300;SDS011;7234;59.306;18.024;2023-12-29T00:32:47;2.15;;;0.80;;
14300;SDS011;7234;59.306;18.024;2023-12-29T00:35:15;2.25;;;0.88;;
14300;SDS011;7234;59.306;18.024;2023-12-29T00:37:42;1.70;;;0.73;;
14300;SDS011;7234;59.306;18.024;2023-12-29T00:40:09;1.67;;;0.80;;
14300;SDS011;7234;59.306;18.024;2023-12-29T00:42:37;0.60;;;0.60;;
14300;SDS011;7234;59.306;18.024;2023-12-29T00:45:04;0.70;;;0.70;;
14300;SDS011;7234;59.306;18.024;2023-12-29T00:47:33;0.82;;;0.63;;
14300;SDS011;7234;59.306;18.024;2023-12-29T00:50:01;1.13;;;0.80;;
14300;SDS011;7234;59.306;18.024;2023-12-29T00:52:29;1.45;;;0.75;;
14300;SDS011;7234;59.306;18.024;2023-12-29T00:54:56;1.17;;;0.70;;
14300;SDS011;7234;59.306;18.024;2023-12-29T00:57:23;1.40;;;0.95;;
14300;SDS011;7234;59.306;18.024;2023-12-29T00:59:50;2.80;;;0.80;;
14300;SDS011;7234;59.306;18.024;2023-12-29T01:02:17;1.02;;;0.60;;
14300;SDS011;7234;59.306;18.024;2023-12-29T01:04:46;1.23;;;0.70;;
14300;SDS011;7234;59.306;18.024;2023-12-29T01:07:14;2.83;;;0.77;;
14300;SDS011;7234;59.306;18.024;2023-12-29T01:09:41;2.17;;;0.77;;
14300;SDS011;7234;59.306;18.024;2023-12-29T01:12:08;1.52;;;0.90;;
14300;SDS011;7234;59.306;18.024;2023-12-29T01:14:35;1.67;;;0.70;;
14300;SDS011;7234;59.306;18.024;2023-12-29T01:17:03;0.88;;;0.73;;
14300;SDS011;7234;59.306;18.024;2023-12-29T01:19:30;0.93;;;0.80;;
14300;SDS011;7234;59.306;18.024;2023-12-29T01:21:57;1.00;;;0.90;;
14300;SDS011;7234;59.306;18.024;2023-12-29T01:24:25;1.42;;;0.68;;
14300;SDS011;7234;59.306;18.024;2023-12-29T01:26:52;0.93;;;0.75;;
14300;SDS011;7234;59.306;18.024;2023-12-29T01:29:19;0.70;;;0.70;;
14300;SDS011;7234;59.306;18.024;2023-12-29T01:31:47;1.80;;;0.90;;
14300;SDS011;7234;59.306;18.024;2023-12-29T01:34:14;0.90;;;0.60;;
14300;SDS011;7234;59.306;18.024;2023-12-29T01:36:41;1.95;;;0.80;;
14300;SDS011;7234;59.306;18.024;2023-12-29T01:39:08;3.13;;;0.90;;
14300;SDS011;7234;59.306;18.024;2023-12-29T01:41:36;0.77;;;0.77;;
14300;SDS011;7234;59.306;18.024;2023-12-29T01:44:16;1.27;;;0.80;;
14300;SDS011;7234;59.306;18.024;2023-12-29T01:46:48;0.90;;;0.80;;
14300;SDS011;7234;59.306;18.024;2023-12-29T01:49:17;1.38;;;0.98;;
14300;SDS011;7234;59.306;18.024;2023-12-29T01:51:47;1.25;;;0.80;;
14300;SDS011;7234;59.306;18.024;2023-12-29T01:54:16;1.23;;;0.95;;
14300;SDS011;7234;59.306;18.024;2023-12-29T01:56:46;2.13;;;1.00;;
14300;SDS011;7234;59.306;18.024;2023-12-29T01:59:16;1.52;;;1.20;;
14300;SDS011;7234;59.306;18.024;2023-12-29T02:01:43;2.38;;;0.95;;
14300;SDS011;7234;59.306;18.024;2023-12-29T02:04:11;1.30;;;0.80;;
14300;SDS011;7234;59.306;18.024;2023-12-29T02:06:39;1.33;;;0.90;;
14300;SDS011;7234;59.306;18.024;2023-12-29T02:09:08;1.60;;;0.90;;
14300;SDS011;7234;59.306;18.024;2023-12-29T02:11:37;1.67;;;0.80;;
14300;SDS011;7234;59.306;18.024;2023-12-29T02:14:06;1.13;;;0.90;;
14300;SDS011;7234;59.306;18.024;2023-12-29T02:16:35;1.45;;;0.90;;
14300;SDS011;7234;59.306;18.024;2023-12-29T02:19:13;1.50;;;0.93;;
14300;SDS011;7234;59.306;18.024;2023-12-29T02:21:50;2.10;;;1.00;;
14300;SDS011;7234;59.306;18.024;2023-12-29T02:24:17;0.60;;;0.60;;
14300;SDS011;7234;59.306;18.024;2023-12-29T02:26:47;2.63;;;1.00;;
14300;SDS011;7234;59.306;18.024;2023-12-29T02:29:19;1.30;;;0.90;;
14300;SDS011;7234;59.306;18.024;2023-12-29T02:31:49;1.75;;;1.00;;
14300;SDS011;7234;59.306;18.024;2023-12-29T02:34:20;1.23;;;0.77;;
14300;SDS011;7234;59.306;18.024;2023-12-29T02:36:49;1.90;;;1.17;;
14300;SDS011;7234;59.306;18.024;2023-12-29T02:39:18;1.52;;;1.05;;
14300;SDS011;7234;59.306;18.024;2023-12-29T02:41:47;1.00;;;0.80;;
14300;SDS011;7234;59.306;18.024;2023-12-29T02:44:14;1.02;;;0.90;;
14300;SDS011;7234;59.306;18.024;2023-12-29T02:46:40;2.58;;;0.95;;
14300;SDS011;7234;59.306;18.024;2023-12-29T02:49:07;1.15;;;0.93;;
14300;SDS011;7234;59.306;18.024;2023-12-29T02:51:38;1.90;;;0.98;;
14300;SDS011;7234;59.306;18.024;2023-12-29T02:54:05;1.92;;;0.90;;
14300;SDS011;7234;59.306;18.024;2023-12-29T02:56:32;1.30;;;0.90;;
14300;SDS011;7234;59.306;18.024;2023-12-29T02:59:02;1.33;;;1.00;;
14300;SDS011;7234;59.306;18.024;2023-12-29T03:01:29;1.92;;;0.98;;
14300;SDS011;7234;59.306;18.024;2023-12-29T03:03:56;2.08;;;0.98;;
14300;SDS011;7234;59.306;18.024;2023-12-29T03:06:23;2.05;;;0.77;;
14300;SDS011;7234;59.306;18.024;2023-12-29T03:08:52;1.83;;;1.17;;
14300;SDS011;7234;59.306;18.024;2023-12-29T03:11:19;1.85;;;1.02;;
14300;SDS011;7234;59.306;18.024;2023-12-29T03:13:46;1.30;;;1.08;;
14300;SDS011;7234;59.306;18.024;2023-12-29T03:16:14;1.27;;;1.10;;
14300;SDS011;7234;59.306;18.024;2023-12-29T03:18:41;1.17;;;1.00;;
14300;SDS011;7234;59.306;18.024;2023-12-29T03:21:08;2.03;;;1.17;;
14300;SDS011;7234;59.306;18.024;2023-12-29T03:23:35;1.40;;;1.10;;
14300;SDS011;7234;59.306;18.024;2023-12-29T03:26:02;1.60;;;1.13;;
14300;SDS011;7234;59.306;18.024;2023-12-29T03:28:30;1.27;;;1.08;;
14300;SDS011;7234;59.306;18.024;2023-12-29T03:30:57;1.60;;;1.13;;
14300;SDS011;7234;59.306;18.024;2023-12-29T03:33:25;1.80;;;1.30;;
14300;SDS011;7234;59.306;18.024;2023-12-29T03:35:52;1.45;;;1.17;;
14300;SDS011;7234;59.306;18.024;2023-12-29T03:38:19;1.20;;;1.10;;
14300;SDS011;7234;59.306;18.024;2023-12-29T03:40:46;3.00;;;1.38;;
14300;SDS011;7234;59.306;18.024;2023-12-29T03:43:13;1.20;;;1.10;;
14300;SDS011;7234;59.306;18.024;2023-12-29T03:45:40;2.10;;;1.20;;
14300;SDS011;7234;59.306;18.024;2023-12-29T03:48:07;1.48;;;1.30;;
14300;SDS011;7234;59.306;18.024;2023-12-29T03:50:36;1.08;;;0.98;;
14300;SDS011;7234;59.306;18.024;2023-12-29T03:53:04;1.45;;;1.10;;
14300;SDS011;7234;59.306;18.024;2023-12-29T03:55:31;2.00;;;1.58;;
14300;SDS011;7234;59.306;18.024;2023-12-29T03:57:58;2.13;;;1.50;;
14300;SDS011;7234;59.306;18.024;2023-12-29T04:00:26;1.40;;;1.20;;
14300;SDS011;7234;59.306;18.024;2023-12-29T04:02:54;2.58;;;1.60;;
14300;SDS011;7234;59.306;18.024;2023-12-29T04:05:21;1.85;;;1.42;;
14300;SDS011;7234;59.306;18.024;2023-12-29T04:07:49;2.70;;;1.40;;
14300;SDS011;7234;59.306;18.024;2023-12-29T04:10:16;1.85;;;1.38;;
14300;SDS011;7234;59.306;18.024;2023-12-29T04:12:42;2.90;;;1.80;;
14300;SDS011;7234;59.306;18.024;2023-12-29T04:15:10;2.45;;;1.30;;
14300;SDS011;7234;59.306;18.024;2023-12-29T04:17:37;1.98;;;1.40;;
14300;SDS011;7234;59.306;18.024;2023-12-29T04:20:05;2.58;;;1.45;;
14300;SDS011;7234;59.306;18.024;2023-12-29T04:22:32;2.20;;;1.60;;
14300;SDS011;7234;59.306;18.024;2023-12-29T04:25:01;1.95;;;1.35;;
14300;SDS011;7234;59.306;18.024;2023-12-29T04:27:29;2.28;;;1.45;;
14300;SDS011;7234;59.306;18.024;2023-12-29T04:29:56;2.88;;;1.40;;
14300;SDS011;7234;59.306;18.024;2023-12-29T04:32:23;3.65;;;1.35;;
14300;SDS011;7234;59.306;18.024;2023-12-29T04:34:50;1.65;;;1.25;;
14300;SDS011;7234;59.306;18.024;2023-12-29T04:37:17;1.83;;;1.20;;
14300;SDS011;7234;59.306;18.024;2023-12-29T04:39:44;2.58;;;1.50;;
14300;SDS011;7234;59.306;18.024;2023-12-29T04:42:12;2.15;;;1.15;;
14300;SDS011;7234;59.306;18.024;2023-12-29T04:44:39;1.65;;;1.10;;
14300;SDS011;7234;59.306;18.024;2023-12-29T04:47:06;1.58;;;0.90;;
14300;SDS011;7234;59.306;18.024;2023-12-29T04:49:33;1.42;;;0.90;;
14300;SDS011;7234;59.306;18.024;2023-12-29T04:52:00;1.55;;;0.90;;
14300;SDS011;7234;59.306;18.024;2023-12-29T04:54:27;0.95;;;0.88;;
14300;SDS011;7234;59.306;18.024;2023-12-29T04:56:55;0.85;;;0.82;;
14300;SDS011;7234;59.306;18.024;2023-12-29T04:59:23;0.77;;;0.65;;
14300;SDS011;7234;59.306;18.024;2023-12-29T05:01:50;1.05;;;0.77;;
14300;SDS011;7234;59.306;18.024;2023-12-29T05:04:17;1.17;;;0.88;;
14300;SDS011;7234;59.306;18.024;2023-12-29T05:06:44;0.73;;;0.73;;
14300;SDS011;7234;59.306;18.024;2023-12-29T05:09:11;0.82;;;0.80;;
14300;SDS011;7234;59.306;18.024;2023-12-29T05:11:38;1.23;;;0.75;;
14300;SDS011;7234;59.306;18.024;2023-12-29T05:14:05;0.55;;;0.50;;
14300;SDS011;7234;59.306;18.024;2023-12-29T05:16:34;1.02;;;0.80;;
14300;SDS011;7234;59.306;18.024;2023-12-29T05:19:02;1.35;;;0.85;;
14300;SDS011;7234;59.306;18.024;2023-12-29T05:21:29;0.80;;;0.80;;
14300;SDS011;7234;59.306;18.024;2023-12-29T05:23:56;1.20;;;0.68;;
14300;SDS011;7234;59.306;18.024;2023-12-29T05:26:23;0.80;;;0.73;;
14300;SDS011;7234;59.306;18.024;2023-12-29T05:28:50;0.93;;;0.60;;
14300;SDS011;7234;59.306;18.024;2023-12-29T05:31:17;0.88;;;0.65;;
14300;SDS011;7234;59.306;18.024;2023-12-29T05:33:45;1.92;;;0.60;;
14300;SDS011;7234;59.306;18.024;2023-12-29T05:36:13;1.13;;;0.85;;
14300;SDS011;7234;59.306;18.024;2023-12-29T05:38:40;0.77;;;0.65;;
14300;SDS011;7234;59.306;18.024;2023-12-29T05:41:12;0.85;;;0.70;;
14300;SDS011;7234;59.306;18.024;2023-12-29T05:43:40;1.35;;;0.50;;
14300;SDS011;7234;59.306;18.024;2023-12-29T05:46:08;0.98;;;0.60;;
14300;SDS011;7234;59.306;18.024;2023-12-29T05:48:36;1.15;;;0.80;;
14300;SDS011;7234;59.306;18.024;2023-12-29T05:51:07;0.63;;;0.60;;
14300;SDS011;7234;59.306;18.024;2023-12-29T05:53:35;0.70;;;0.70;;
14300;SDS011;7234;59.306;18.024;2023-12-29T05:56:02;1.98;;;0.70;;
14300;SDS011;7234;59.306;18.024;2023-12-29T05:58:30;0.65;;;0.60;;
14300;SDS011;7234;59.306;18.024;2023-12-29T06:00:57;0.65;;;0.52;;
14300;SDS011;7234;59.306;18.024;2023-12-29T06:03:25;1.10;;;0.77;;
14300;SDS011;7234;59.306;18.024;2023-12-29T06:05:53;1.45;;;0.60;;
14300;SDS011;7234;59.306;18.024;2023-12-29T06:08:21;1.30;;;0.82;;
14300;SDS011;7234;59.306;18.024;2023-12-29T06:10:48;0.93;;;0.75;;
14300;SDS011;7234;59.306;18.024;2023-12-29T06:13:15;2.22;;;0.80;;
14300;SDS011;7234;59.306;18.024;2023-12-29T06:15:42;1.08;;;0.75;;
14300;SDS011;7234;59.306;18.024;2023-12-29T06:18:10;0.73;;;0.63;;
14300;SDS011;7234;59.306;18.024;2023-12-29T06:20:37;0.73;;;0.47;;
14300;SDS011;7234;59.306;18.024;2023-12-29T06:23:04;0.70;;;0.50;;
14300;SDS011;7234;59.306;18.024;2023-12-29T06:25:33;0.63;;;0.50;;
14300;SDS011;7234;59.306;18.024;2023-12-29T06:28:00;0.63;;;0.57;;
14300;SDS011;7234;59.306;18.024;2023-12-29T06:30:31;0.70;;;0.60;;
14300;SDS011;7234;59.306;18.024;2023-12-29T06:32:58;0.60;;;0.60;;
14300;SDS011;7234;59.306;18.024;2023-12-29T06:35:25;1.90;;;0.90;;
14300;SDS011;7234;59.306;18.024;2023-12-29T06:37:52;2.35;;;0.90;;
14300;SDS011;7234;59.306;18.024;2023-12-29T06:40:19;0.75;;;0.63;;
14300;SDS011;7234;59.306;18.024;2023-12-29T06:42:48;0.45;;;0.45;;
14300;SDS011;7234;59.306;18.024;2023-12-29T06:45:15;1.33;;;0.60;;
14300;SDS011;7234;59.306;18.024;2023-12-29T06:47:42;1.80;;;0.70;;
14300;SDS011;7234;59.306;18.024;2023-12-29T06:50:09;1.60;;;0.80;;
14300;SDS011;7234;59.306;18.024;2023-12-29T06:52:38;1.10;;;0.80;;
14300;SDS011;7234;59.306;18.024;2023-12-29T06:55:06;1.67;;;1.00;;
14300;SDS011;7234;59.306;18.024;2023-12-29T06:57:34;1.33;;;0.80;;
14300;SDS011;7234;59.306;18.024;2023-12-29T07:00:05;2.28;;;1.13;;
14300;SDS011;7234;59.306;18.024;2023-12-29T07:02:33;1.17;;;0.80;;
14300;SDS011;7234;59.306;18.024;2023-12-29T07:05:03;1.23;;;0.90;;
14300;SDS011;7234;59.306;18.024;2023-12-29T07:07:31;2.67;;;1.15;;
14300;SDS011;7234;59.306;18.024;2023-12-29T07:09:58;2.78;;;1.17;;
14300;SDS011;7234;59.306;18.024;2023-12-29T07:12:25;1.77;;;1.25;;
14300;SDS011;7234;59.306;18.024;2023-12-29T07:14:52;5.93;;;1.58;;
14300;SDS011;7234;59.306;18.024;2023-12-29T07:17:21;4.45;;;1.60;;
14300;SDS011;7234;59.306;18.024;2023-12-29T07:19:48;3.17;;;1.30;;
14300;SDS011;7234;59.306;18.024;2023-12-29T07:22:16;3.33;;;1.60;;
14300;SDS011;7234;59.306;18.024;2023-12-29T07:24:43;3.42;;;1.50;;
14300;SDS011;7234;59.306;18.024;2023-12-29T07:27:10;5.57;;;2.00;;
14300;SDS011;7234;59.306;18.024;2023-12-29T07:29:37;3.40;;;1.65;;
14300;SDS011;7234;59.306;18.024;2023-12-29T07:32:06;6.47;;;1.83;;
14300;SDS011;7234;59.306;18.024;2023-12-29T07:34:35;3.08;;;1.40;;
14300;SDS011;7234;59.306;18.024;2023-12-29T07:37:02;3.85;;;1.67;;
14300;SDS011;7234;59.306;18.024;2023-12-29T07:39:29;2.85;;;1.63;;
14300;SDS011;7234;59.306;18.024;2023-12-29T07:41:56;4.78;;;1.88;;
14300;SDS011;7234;59.306;18.024;2023-12-29T07:44:23;3.72;;;1.80;;
14300;SDS011;7234;59.306;18.024;2023-12-29T07:46:51;3.25;;;1.63;;
14300;SDS011;7234;59.306;18.024;2023-12-29T07:49:18;3.25;;;1.95;;
14300;SDS011;7234;59.306;18.024;2023-12-29T07:51:47;2.63;;;1.52;;
14300;SDS011;7234;59.306;18.024;2023-12-29T07:54:14;5.80;;;1.50;;
14300;SDS011;7234;59.306;18.024;2023-12-29T07:56:41;5.22;;;1.58;;
14300;SDS011;7234;59.306;18.024;2023-12-29T07:59:08;5.70;;;1.63;;
14300;SDS011;7234;59.306;18.024;2023-12-29T08:01:35;3.22;;;1.33;;
14300;SDS011;7234;59.306;18.024;2023-12-29T08:04:03;4.57;;;1.45;;
14300;SDS011;7234;59.306;18.024;2023-12-29T08:06:32;7.15;;;1.55;;
14300;SDS011;7234;59.306;18.024;2023-12-29T08:09:00;5.40;;;1.40;;
14300;SDS011;7234;59.306;18.024;2023-12-29T08:11:27;3.72;;;1.50;;
14300;SDS011;7234;59.306;18.024;2023-12-29T08:13:54;5.10;;;1.53;;
14300;SDS011;7234;59.306;18.024;2023-12-29T08:16:21;5.18;;;1.40;;
14300;SDS011;7234;59.306;18.024;2023-12-29T08:18:49;3.92;;;1.40;;
14300;SDS011;7234;59.306;18.024;2023-12-29T08:21:16;4.43;;;1.20;;
14300;SDS011;7234;59.306;18.024;2023-12-29T08:23:44;3.70;;;1.50;;
14300;SDS011;7234;59.306;18.024;2023-12-29T08:26:13;7.20;;;1.37;;
14300;SDS011;7234;59.306;18.024;2023-12-29T08:28:41;5.43;;;1.43;;
14300;SDS011;7234;59.306;18.024;2023-12-29T08:31:10;4.00;;;1.43;;
14300;SDS011;7234;59.306;18.024;2023-12-29T08:33:37;3.90;;;1.30;;
14300;SDS011;7234;59.306;18.024;2023-12-29T08:36:04;3.93;;;1.53;;
14300;SDS011;7234;59.306;18.024;2023-12-29T08:38:32;11.67;;;1.70;;
14300;SDS011;7234;59.306;18.024;2023-12-29T08:40:59;10.97;;;2.03;;
14300;SDS011;7234;59.306;18.024;2023-12-29T08:43:28;5.33;;;1.53;;
14300;SDS011;7234;59.306;18.024;2023-12-29T08:45:55;5.37;;;1.60;;
14300;SDS011;7234;59.306;18.024;2023-12-29T08:48:22;5.90;;;1.90;;
14300;SDS011;7234;59.306;18.024;2023-12-29T08:50:50;4.50;;;1.23;;
14300;SDS011;7234;59.306;18.024;2023-12-29T08:53:17;3.83;;;1.50;;
14300;SDS011;7234;59.306;18.024;2023-12-29T08:55:44;3.70;;;1.67;;
14300;SDS011;7234;59.306;18.024;2023-12-29T08:58:11;3.80;;;1.50;;
14300;SDS011;7234;59.306;18.024;2023-12-29T09:00:40;6.67;;;1.73;;
14300;SDS011;7234;59.306;18.024;2023-12-29T09:03:07;5.03;;;1.60;;
14300;SDS011;7234;59.306;18.024;2023-12-29T09:05:34;8.53;;;1.97;;
14300;SDS011;7234;59.306;18.024;2023-12-29T09:08:02;4.63;;;1.50;;
14300;SDS011;7234;59.306;18.024;2023-12-29T09:10:30;3.83;;;1.40;;
14300;SDS011;7234;59.306;18.024;2023-12-29T09:12:57;3.57;;;1.30;;
14300;SDS011;7234;59.306;18.024;2023-12-29T09:15:24;3.67;;;1.40;;
14300;SDS011;7234;59.306;18.024;2023-12-29T09:17:52;7.63;;;1.40;;
14300;SDS011;7234;59.306;18.024;2023-12-29T09:20:19;3.70;;;1.07;;
14300;SDS011;7234;59.306;18.024;2023-12-29T09:22:46;6.00;;;1.63;;
14300;SDS011;7234;59.306;18.024;2023-12-29T09:25:14;7.60;;;1.30;;
14300;SDS011;7234;59.306;18.024;2023-12-29T09:27:41;3.50;;;1.57;;
14300;SDS011;7234;59.306;18.024;2023-12-29T09:30:09;9.00;;;1.63;;
14300;SDS011;7234;59.306;18.024;2023-12-29T09:32:36;7.47;;;2.07;;
14300;SDS011;7234;59.306;18.024;2023-12-29T09:35:05;7.00;;;1.73;;
14300;SDS011;7234;59.306;18.024;2023-12-29T09:37:32;6.53;;;1.80;;
14300;SDS011;7234;59.306;18.024;2023-12-29T09:39:59;5.80;;;1.97;;
14300;SDS011;7234;59.306;18.024;2023-12-29T09:42:27;3.80;;;1.60;;
14300;SDS011;7234;59.306;18.024;2023-12-29T09:44:56;3.57;;;1.60;;
14300;SDS011;7234;59.306;18.024;2023-12-29T09:47:24;6.10;;;1.40;;
14300;SDS011;7234;59.306;18.024;2023-12-29T09:49:51;5.03;;;1.63;;
14300;SDS011;7234;59.306;18.024;2023-12-29T09:52:21;6.30;;;1.33;;
14300;SDS011;7234;59.306;18.024;2023-12-29T09:54:48;7.97;;;1.90;;
14300;SDS011;7234;59.306;18.024;2023-12-29T09:57:17;6.50;;;1.70;;
14300;SDS011;7234;59.306;18.024;2023-12-29T09:59:45;7.80;;;2.13;;
14300;SDS011;7234;59.306;18.024;2023-12-29T10:02:17;7.40;;;1.77;;
14300;SDS011;7234;59.306;18.024;2023-12-29T10:04:46;5.27;;;1.50;;
14300;SDS011;7234;59.306;18.024;2023-12-29T10:07:15;9.70;;;1.70;;
14300;SDS011;7234;59.306;18.024;2023-12-29T10:09:50;6.10;;;1.53;;
14300;SDS011;7234;59.306;18.024;2023-12-29T10:12:18;5.90;;;1.70;;
14300;SDS011;7234;59.306;18.024;2023-12-29T10:14:48;8.37;;;2.03;;
14300;SDS011;7234;59.306;18.024;2023-12-29T10:17:19;4.67;;;1.90;;
14300;SDS011;7234;59.306;18.024;2023-12-29T10:19:57;4.63;;;1.53;;
14300;SDS011;7234;59.306;18.024;2023-12-29T10:22:31;4.90;;;1.70;;
14300;SDS011;7234;59.306;18.024;2023-12-29T10:25:07;5.00;;;1.70;;
14300;SDS011;7234;59.306;18.024;2023-12-29T10:27:34;6.53;;;2.27;;
14300;SDS011;7234;59.306;18.024;2023-12-29T10:30:01;6.13;;;1.90;;
14300;SDS011;7234;59.306;18.024;2023-12-29T10:32:31;8.03;;;1.97;;
14300;SDS011;7234;59.306;18.024;2023-12-29T10:35:07;7.20;;;2.10;;
14300;SDS011;7234;59.306;18.024;2023-12-29T10:37:35;4.33;;;2.00;;
14300;SDS011;7234;59.306;18.024;2023-12-29T10:40:03;12.80;;;2.17;;
14300;SDS011;7234;59.306;18.024;2023-12-29T10:42:33;8.87;;;2.80;;
14300;SDS011;7234;59.306;18.024;2023-12-29T10:45:07;4.17;;;1.30;;
14300;SDS011;7234;59.306;18.024;2023-12-29T10:47:35;6.43;;;1.90;;
14300;SDS011;7234;59.306;18.024;2023-12-29T10:50:03;7.37;;;1.70;;
14300;SDS011;7234;59.306;18.024;2023-12-29T10:52:31;5.80;;;2.37;;
14300;SDS011;7234;59.306;18.024;2023-12-29T10:55:09;7.73;;;1.87;;
14300;SDS011;7234;59.306;18.024;2023-12-29T10:57:39;7.60;;;2.10;;
14300;SDS011;7234;59.306;18.024;2023-12-29T11:00:07;5.47;;;1.90;;
14300;SDS011;7234;59.306;18.024;2023-12-29T11:02:37;5.53;;;1.90;;
14300;SDS011;7234;59.306;18.024;2023-12-29T11:05:05;8.17;;;1.73;;
14300;SDS011;7234;59.306;18.024;2023-12-29T11:07:33;10.17;;;2.20;;
14300;SDS011;7234;59.306;18.024;2023-12-29T11:10:02;7.57;;;2.33;;
14300;SDS011;7234;59.306;18.024;2023-12-29T11:12:32;12.07;;;2.28;;
14300;SDS011;7234;59.306;18.024;2023-12-29T11:15:01;7.78;;;1.73;;
14300;SDS011;7234;59.306;18.024;2023-12-29T11:17:30;6.93;;;1.83;;
14300;SDS011;7234;59.306;18.024;2023-12-29T11:19:58;13.20;;;2.53;;
14300;SDS011;7234;59.306;18.024;2023-12-29T11:22:27;4.93;;;2.10;;
14300;SDS011;7234;59.306;18.024;2023-12-29T11:24:56;7.32;;;2.50;;
14300;SDS011;7234;59.306;18.024;2023-12-29T11:27:25;8.07;;;2.80;;
14300;SDS011;7234;59.306;18.024;2023-12-29T11:29:55;6.43;;;2.45;;
14300;SDS011;7234;59.306;18.024;2023-12-29T11:32:26;5.30;;;1.90;;
14300;SDS011;7234;59.306;18.024;2023-12-29T11:35:02;6.95;;;2.08;;
14300;SDS011;7234;59.306;18.024;2023-12-29T11:37:43;5.73;;;2.37;;
14300;SDS011;7234;59.306;18.024;2023-12-29T11:40:23;6.87;;;2.30;;
14300;SDS011;7234;59.306;18.024;2023-12-29T11:42:57;7.97;;;1.80;;
14300;SDS011;7234;59.306;18.024;2023-12-29T11:45:29;7.68;;;2.65;;
14300;SDS011;7234;59.306;18.024;2023-12-29T11:48:02;15.93;;;2.70;;
14300;SDS011;7234;59.306;18.024;2023-12-29T11:50:30;9.25;;;2.67;;
14300;SDS011;7234;59.306;18.024;2023-12-29T11:52:58;7.32;;;2.22;;
14300;SDS011;7234;59.306;18.024;2023-12-29T11:55:29;8.85;;;3.28;;
14300;SDS011;7234;59.306;18.024;2023-12-29T11:57:57;6.65;;;2.28;;
14300;SDS011;7234;59.306;18.024;2023-12-29T12:00:40;10.30;;;2.25;;
14300;SDS011;7234;59.306;18.024;2023-12-29T12:03:16;10.45;;;2.70;;
14300;SDS011;7234;59.306;18.024;2023-12-29T12:05:46;6.53;;;2.25;;
14300;SDS011;7234;59.306;18.024;2023-12-29T12:08:30;12.10;;;2.22;;
14300;SDS011;7234;59.306;18.024;2023-12-29T12:14:01;7.28;;;2.53;;
14300;SDS011;7234;59.306;18.024;2023-12-29T12:19:19;8.15;;;2.42;;
14300;SDS011;7234;59.306;18.024;2023-12-29T12:21:49;9.57;;;2.90;;
14300;SDS011;7234;59.306;18.024;2023-12-29T12:24:20;8.20;;;2.67;;
14300;SDS011;7234;59.306;18.024;2023-12-29T12:26:47;7.25;;;2.28;;
14300;SDS011;7234;59.306;18.024;2023-12-29T12:29:15;8.23;;;2.20;;
14300;SDS011;7234;59.306;18.024;2023-12-29T12:31:54;5.82;;;2.25;;
14300;SDS011;7234;59.306;18.024;2023-12-29T12:34:23;9.05;;;2.40;;
14300;SDS011;7234;59.306;18.024;2023-12-29T12:36:50;9.15;;;2.70;;
14300;SDS011;7234;59.306;18.024;2023-12-29T12:39:17;7.18;;;2.10;;
14300;SDS011;7234;59.306;18.024;2023-12-29T12:41:45;5.38;;;2.50;;
14300;SDS011;7234;59.306;18.024;2023-12-29T12:44:12;6.95;;;2.25;;
14300;SDS011;7234;59.306;18.024;2023-12-29T12:46:41;13.15;;;2.80;;
14300;SDS011;7234;59.306;18.024;2023-12-29T12:49:15;9.02;;;2.72;;
14300;SDS011;7234;59.306;18.024;2023-12-29T12:51:47;8.48;;;2.45;;
14300;SDS011;7234;59.306;18.024;2023-12-29T12:54:17;7.43;;;2.45;;
14300;SDS011;7234;59.306;18.024;2023-12-29T12:56:45;5.53;;;1.90;;
14300;SDS011;7234;59.306;18.024;2023-12-29T12:59:12;9.98;;;2.90;;
14300;SDS011;7234;59.306;18.024;2023-12-29T13:01:41;7.88;;;2.65;;
14300;SDS011;7234;59.306;18.024;2023-12-29T13:04:09;5.82;;;2.33;;
14300;SDS011;7234;59.306;18.024;2023-12-29T13:06:39;6.32;;;2.35;;
14300;SDS011;7234;59.306;18.024;2023-12-29T13:09:10;8.60;;;2.63;;
14300;SDS011;7234;59.306;18.024;2023-12-29T13:11:37;10.82;;;2.70;;
14300;SDS011;7234;59.306;18.024;2023-12-29T13:14:05;8.80;;;2.75;;
14300;SDS011;7234;59.306;18.024;2023-12-29T13:16:33;9.00;;;2.50;;
14300;SDS011;7234;59.306;18.024;2023-12-29T13:19:17;6.00;;;2.20;;
14300;SDS011;7234;59.306;18.024;2023-12-29T13:21:46;7.07;;;2.33;;
14300;SDS011;7234;59.306;18.024;2023-12-29T13:24:15;7.07;;;2.10;;
14300;SDS011;7234;59.306;18.024;2023-12-29T13:26:43;11.18;;;3.95;;
14300;SDS011;7234;59.306;18.024;2023-12-29T13:29:13;10.15;;;3.03;;
14300;SDS011;7234;59.306;18.024;2023-12-29T13:31:40;7.47;;;2.50;;
14300;SDS011;7234;59.306;18.024;2023-12-29T13:34:11;7.97;;;3.00;;
14300;SDS011;7234;59.306;18.024;2023-12-29T13:36:42;8.70;;;2.72;;
14300;SDS011;7234;59.306;18.024;2023-12-29T13:39:23;8.32;;;2.58;;
14300;SDS011;7234;59.306;18.024;2023-12-29T13:41:55;9.27;;;2.85;;
14300;SDS011;7234;59.306;18.024;2023-12-29T13:44:24;7.22;;;2.60;;
14300;SDS011;7234;59.306;18.024;2023-12-29T13:46:52;12.63;;;2.80;;
14300;SDS011;7234;59.306;18.024;2023-12-29T13:49:21;8.40;;;2.50;;
14300;SDS011;7234;59.306;18.024;2023-12-29T13:51:48;6.45;;;2.88;;
14300;SDS011;7234;59.306;18.024;2023-12-29T13:54:17;8.40;;;2.45;;
14300;SDS011;7234;59.306;18.024;2023-12-29T13:56:50;11.80;;;2.83;;
14300;SDS011;7234;59.306;18.024;2023-12-29T13:59:18;5.65;;;2.50;;
14300;SDS011;7234;59.306;18.024;2023-12-29T14:01:45;8.40;;;2.38;;
14300;SDS011;7234;59.306;18.024;2023-12-29T14:04:12;11.82;;;2.20;;
14300;SDS011;7234;59.306;18.024;2023-12-29T14:06:49;8.45;;;2.42;;
14300;SDS011;7234;59.306;18.024;2023-12-29T14:09:24;9.32;;;2.50;;
14300;SDS011;7234;59.306;18.024;2023-12-29T14:11:51;9.43;;;2.65;;
14300;SDS011;7234;59.306;18.024;2023-12-29T14:14:21;6.50;;;2.40;;
14300;SDS011;7234;59.306;18.024;2023-12-29T14:16:49;8.68;;;2.75;;
14300;SDS011;7234;59.306;18.024;2023-12-29T14:19:17;12.52;;;2.70;;
14300;SDS011;7234;59.306;18.024;2023-12-29T14:21:44;9.55;;;2.50;;
14300;SDS011;7234;59.306;18.024;2023-12-29T14:24:13;7.05;;;2.40;;
14300;SDS011;7234;59.306;18.024;2023-12-29T14:26:43;7.43;;;2.33;;
14300;SDS011;7234;59.306;18.024;2023-12-29T14:29:21;5.50;;;2.28;;
14300;SDS011;7234;59.306;18.024;2023-12-29T14:31:48;7.95;;;2.47;;
14300;SDS011;7234;59.306;18.024;2023-12-29T14:34:17;6.85;;;2.50;;
14300;SDS011;7234;59.306;18.024;2023-12-29T14:36:45;7.32;;;2.40;;
14300;SDS011;7234;59.306;18.024;2023-12-29T14:39:12;4.90;;;2.47;;
14300;SDS011;7234;59.306;18.024;2023-12-29T14:41:40;7.60;;;2.38;;
14300;SDS011;7234;59.306;18.024;2023-12-29T14:44:09;5.55;;;2.17;;
14300;SDS011;7234;59.306;18.024;2023-12-29T14:46:36;5.22;;;2.15;;
14300;SDS011;7234;59.306;18.024;2023-12-29T14:49:03;5.68;;;2.58;;
14300;SDS011;7234;59.306;18.024;2023-12-29T14:51:31;6.28;;;2.70;;
14300;SDS011;7234;59.306;18.024;2023-12-29T14:53:58;8.98;;;2.47;;
14300;SDS011;7234;59.306;18.024;2023-12-29T14:56:25;6.40;;;2.38;;
14300;SDS011;7234;59.306;18.024;2023-12-29T14:58:51;8.38;;;2.55;;
14300;SDS011;7234;59.306;18.024;2023-12-29T15:01:20;6.57;;;2.00;;